createdAt,value
2019-03-29T00:03:47.315Z,79.40
2019-03-29T00:07:52.452Z,79.50
2019-03-29T00:11:57.595Z,80.40
2019-03-29T00:16:02.708Z,79.80
2019-03-29T00:20:08.155Z,79.70
2019-03-29T00:24:13.267Z,79.90
2019-03-29T00:28:18.403Z,79.80
2019-03-29T00:32:23.584Z,79.70
2019-03-29T00:36:28.720Z,79.40
2019-03-29T00:40:33.800Z,79.50
2019-03-29T00:44:38.931Z,79.50
2019-03-29T00:48:44.060Z,79.80
2019-03-29T00:52:49.239Z,79.50
2019-03-29T00:56:54.379Z,79.50
2019-03-29T01:01:00.041Z,80.50
2019-03-29T01:05:05.120Z,79.50
2019-03-29T01:09:10.292Z,79.80
2019-03-29T01:13:15.424Z,79.80
2019-03-29T01:17:20.544Z,79.80
2019-03-29T01:21:25.648Z,79.60
2019-03-29T01:25:30.735Z,79.70
2019-03-29T01:29:35.855Z,79.70
2019-03-29T01:33:40.983Z,79.80
2019-03-29T01:37:46.159Z,79.50
2019-03-29T01:41:52.982Z,79.40
2019-03-29T01:45:58.204Z,79.60
2019-03-29T01:50:03.313Z,78.80
2019-03-29T01:54:08.423Z,79.40
2019-03-29T01:58:13.535Z,79.00
2019-03-29T02:02:18.685Z,79.00
2019-03-29T02:06:23.812Z,79.20
2019-03-29T02:10:29.025Z,78.80
2019-03-29T02:14:34.198Z,78.30
2019-03-29T02:18:39.970Z,77.80
2019-03-29T02:22:45.111Z,77.90
2019-03-29T02:26:50.212Z,78.00
2019-03-29T02:30:55.374Z,77.60
2019-03-29T02:35:00.526Z,77.70
2019-03-29T02:39:06.925Z,77.90
2019-03-29T02:43:12.062Z,77.90
2019-03-29T02:47:17.155Z,78.00
2019-03-29T02:51:23.249Z,78.40
2019-03-29T02:55:28.426Z,78.40
2019-03-29T02:59:33.585Z,78.40
2019-03-29T03:03:38.705Z,78.50
2019-03-29T03:07:44.148Z,78.40
2019-03-29T03:11:49.337Z,78.50
2019-03-29T03:15:54.483Z,78.40
2019-03-29T03:19:59.615Z,78.40
2019-03-29T03:24:04.863Z,78.30
2019-03-29T03:28:09.974Z,78.40
2019-03-29T03:32:15.105Z,78.20
2019-03-29T03:36:20.250Z,78.30
2019-03-29T03:40:25.385Z,78.20
2019-03-29T03:44:30.522Z,78.20
2019-03-29T03:48:35.574Z,77.90
2019-03-29T03:52:40.883Z,77.60
2019-03-29T03:56:46.560Z,77.50
2019-03-29T04:00:58.843Z,77.90
2019-03-29T04:05:03.972Z,81.00
2019-03-29T04:09:09.136Z,76.90
2019-03-29T04:13:14.312Z,77.90
2019-03-29T04:17:19.442Z,78.00
2019-03-29T04:21:24.559Z,78.40
2019-03-29T04:25:29.677Z,78.50
2019-03-29T04:29:35.084Z,78.80
2019-03-29T04:33:40.206Z,79.00
2019-03-29T04:37:45.710Z,79.20
2019-03-29T04:41:50.834Z,79.30
2019-03-29T04:50:04.535Z,78.80
2019-03-29T04:54:09.613Z,79.30
2019-03-29T04:58:14.760Z,79.20
2019-03-29T05:02:19.864Z,79.20
2019-03-29T05:06:25.320Z,79.10
2019-03-29T05:10:30.480Z,79.00
2019-03-29T05:14:35.593Z,79.00
2019-03-29T05:18:40.725Z,79.10
2019-03-29T05:22:45.940Z,79.30
2019-03-29T05:26:51.058Z,79.40
2019-03-29T05:30:56.184Z,80.40
2019-03-29T05:35:01.283Z,80.30
2019-03-29T05:39:07.937Z,80.60
2019-03-29T05:43:13.136Z,80.60
2019-03-29T05:47:18.320Z,80.70
2019-03-29T05:51:23.408Z,80.10
2019-03-29T05:55:32.871Z,80.00
2019-03-29T05:59:35.234Z,79.90
2019-03-29T06:03:40.354Z,80.00
2019-03-29T06:07:45.461Z,80.20
2019-03-29T06:11:50.647Z,80.40
2019-03-29T06:15:55.720Z,80.40
2019-03-29T06:20:00.828Z,80.60
2019-03-29T06:24:05.929Z,80.70
2019-03-29T06:28:11.030Z,80.80
2019-03-29T06:32:16.195Z,81.30
2019-03-29T06:36:23.160Z,81.50
2019-03-29T06:40:28.260Z,82.00
2019-03-29T06:44:33.375Z,82.20
2019-03-29T06:48:38.471Z,82.50
2019-03-29T06:52:43.585Z,82.70
2019-03-29T06:56:48.660Z,82.70
2019-03-29T07:00:53.764Z,82.90
2019-03-29T07:04:58.868Z,82.70
2019-03-29T07:09:05.866Z,82.90
2019-03-29T07:13:10.992Z,83.10
2019-03-29T07:17:16.187Z,83.30
2019-03-29T07:21:22.121Z,83.40
2019-03-29T07:25:27.581Z,83.30
2019-03-29T07:29:32.679Z,83.40
2019-03-29T07:33:37.895Z,82.20
2019-03-29T07:37:42.971Z,83.20
2019-03-29T07:41:48.077Z,83.00
2019-03-29T07:45:53.181Z,83.40
2019-03-29T07:49:58.281Z,83.40
2019-03-29T07:54:03.367Z,83.40
2019-03-29T07:58:08.457Z,84.10
2019-03-29T08:02:13.590Z,85.20
2019-03-29T08:06:18.727Z,87.00
2019-03-29T08:10:29.124Z,88.20
2019-03-29T08:14:31.344Z,83.20
2019-03-29T08:18:36.414Z,81.10
2019-03-29T08:22:41.543Z,80.30
2019-03-29T08:26:46.665Z,79.80
2019-03-29T08:30:51.779Z,79.70
2019-03-29T08:34:56.868Z,79.40
2019-03-29T08:39:01.974Z,79.20
2019-03-29T08:43:07.121Z,78.50
2019-03-29T08:47:12.239Z,78.40
2019-03-29T08:51:17.449Z,79.00
2019-03-29T08:55:22.599Z,78.00
2019-03-29T08:59:27.690Z,78.00
2019-03-29T09:03:32.833Z,77.60
2019-03-29T09:07:44.674Z,77.70
2019-03-29T09:11:44.774Z,77.50
2019-03-29T09:15:49.920Z,77.70
2019-03-29T09:19:55.097Z,77.60
2019-03-29T09:24:00.174Z,77.10
2019-03-29T09:28:05.304Z,77.40
2019-03-29T09:32:10.439Z,77.20
2019-03-29T09:36:15.578Z,76.90
2019-03-29T09:40:21.198Z,76.90
2019-03-29T09:44:26.380Z,78.40
2019-03-29T09:48:34.422Z,79.10
2019-03-29T09:52:38.320Z,80.00
2019-03-29T09:56:43.438Z,78.20
2019-03-29T10:00:48.933Z,78.50
2019-03-29T10:04:53.989Z,77.00
2019-03-29T10:08:59.237Z,76.80
2019-03-29T10:13:04.352Z,76.50
2019-03-29T10:17:09.471Z,75.90
2019-03-29T10:21:17.150Z,75.40
2019-03-29T10:25:21.800Z,75.30
2019-03-29T10:29:27.004Z,75.50
2019-03-29T10:33:32.153Z,76.00
2019-03-29T10:37:37.271Z,74.90
2019-03-29T10:41:42.683Z,75.00
2019-03-29T10:45:47.758Z,75.00
2019-03-29T10:49:52.857Z,74.40
2019-03-29T10:53:57.985Z,74.40
2019-03-29T10:58:03.108Z,74.60
2019-03-29T11:02:08.246Z,74.10
2019-03-29T11:06:13.315Z,73.90
2019-03-29T11:10:31.578Z,73.10
2019-03-29T11:14:36.688Z,73.90
2019-03-29T11:18:41.814Z,73.60
2019-03-29T11:22:46.924Z,73.90
2019-03-29T11:26:52.037Z,73.30
2019-03-29T11:30:57.099Z,72.60
2019-03-29T11:35:02.225Z,72.80
2019-03-29T11:39:08.864Z,73.40
2019-03-29T11:43:26.125Z,73.20
2019-03-29T11:47:20.860Z,73.50
2019-03-29T11:51:25.935Z,72.80
2019-03-29T11:55:31.044Z,72.60
2019-03-29T11:59:36.174Z,72.20
2019-03-29T12:03:41.352Z,72.40
2019-03-29T12:07:46.473Z,72.90
2019-03-29T12:11:51.576Z,71.80
2019-03-29T12:15:56.692Z,72.00
2019-03-29T12:20:01.782Z,72.20
2019-03-29T12:24:06.897Z,71.90
2019-03-29T12:28:11.999Z,72.40
2019-03-29T12:32:17.094Z,71.40
2019-03-29T12:36:22.153Z,71.60
2019-03-29T12:40:27.343Z,74.30
2019-03-29T12:44:32.437Z,74.90
2019-03-29T12:48:37.571Z,74.80
2019-03-29T12:52:42.632Z,75.50
2019-03-29T12:56:47.740Z,76.90
2019-03-29T13:00:52.957Z,77.70
2019-03-29T13:04:58.068Z,76.30
2019-03-29T13:09:03.209Z,74.90
2019-03-29T13:13:08.625Z,76.30
2019-03-29T13:17:13.958Z,77.70
2019-03-29T13:21:19.039Z,77.10
2019-03-29T13:25:24.136Z,78.10
2019-03-29T13:29:29.234Z,77.10
2019-03-29T13:33:34.302Z,77.00
2019-03-29T13:37:39.391Z,77.30
2019-03-29T13:41:44.480Z,73.70
2019-03-29T13:45:49.581Z,74.40
2019-03-29T13:49:54.644Z,75.00
2019-03-29T13:53:59.751Z,76.00
2019-03-29T13:58:04.961Z,76.60
2019-03-29T14:02:10.062Z,76.30
2019-03-29T14:06:15.160Z,76.80
2019-03-29T14:10:20.278Z,76.70
2019-03-29T14:14:37.708Z,75.90
2019-03-29T14:18:32.120Z,71.10
2019-03-29T14:22:37.249Z,71.10
2019-03-29T14:26:42.349Z,69.90
2019-03-29T14:30:47.455Z,69.60
2019-03-29T14:34:52.513Z,70.90
2019-03-29T14:38:57.620Z,73.70
2019-03-29T14:43:02.716Z,73.90
2019-03-29T14:47:07.829Z,75.30
2019-03-29T14:51:13.305Z,75.60
2019-03-29T14:55:18.376Z,73.30
2019-03-29T14:59:23.483Z,73.40
2019-03-29T15:03:28.647Z,75.10
2019-03-29T15:07:33.933Z,75.40
2019-03-29T15:11:39.091Z,75.40
2019-03-29T15:15:44.173Z,73.70
2019-03-29T15:19:49.272Z,74.80
2019-03-29T15:23:54.480Z,75.60
2019-03-29T15:27:59.590Z,75.30
2019-03-29T15:32:04.699Z,74.80
2019-03-29T15:36:09.768Z,75.10
2019-03-29T15:40:15.148Z,74.60
2019-03-29T15:44:20.271Z,74.60
2019-03-29T15:48:25.394Z,74.90
2019-03-29T15:52:30.511Z,75.40
2019-03-29T15:56:35.587Z,74.70
2019-03-29T16:00:40.727Z,75.10
2019-03-29T16:04:45.925Z,74.30
2019-03-29T16:08:51.040Z,74.30
2019-03-29T16:12:56.189Z,74.90
2019-03-29T16:17:01.257Z,75.10
2019-03-29T16:21:06.457Z,73.10
2019-03-29T16:25:11.665Z,73.50
2019-03-29T16:29:16.776Z,74.10
2019-03-29T16:33:21.880Z,73.40
2019-03-29T16:37:26.957Z,73.60
2019-03-29T16:41:32.078Z,74.30
2019-03-29T16:45:47.311Z,74.10
2019-03-29T16:49:43.956Z,73.80
2019-03-29T16:53:49.066Z,74.50
2019-03-29T16:57:54.145Z,74.60
2019-03-29T17:01:59.240Z,74.50
2019-03-29T17:06:04.352Z,74.90
2019-03-29T17:10:09.673Z,74.90
2019-03-29T17:14:15.361Z,75.00
2019-03-29T17:18:29.219Z,75.10
2019-03-29T17:22:27.274Z,74.80
2019-03-29T17:26:32.533Z,75.20
2019-03-29T17:31:02.592Z,75.30
2019-03-29T17:35:07.968Z,74.80
2019-03-29T17:39:13.055Z,75.40
2019-03-29T17:43:18.192Z,75.30
2019-03-29T17:48:47.415Z,74.60
2019-03-29T17:52:57.296Z,74.70
2019-03-29T17:57:03.946Z,75.30
2019-03-29T18:01:10.016Z,75.40
2019-03-29T18:05:18.346Z,75.20
2019-03-29T18:09:26.989Z,75.30
2019-03-29T18:13:33.246Z,75.40
2019-03-29T18:17:40.523Z,75.30
2019-03-29T18:21:47.813Z,75.20
2019-03-29T18:25:52.924Z,75.20
2019-03-29T18:29:58.013Z,74.50
2019-03-29T18:34:03.282Z,75.40
2019-03-29T18:38:08.436Z,75.30
2019-03-29T18:42:13.488Z,75.50
2019-03-29T18:46:18.599Z,75.40
2019-03-29T18:50:23.701Z,75.50
2019-03-29T18:54:30.140Z,74.40
2019-03-29T18:58:35.276Z,73.80
2019-03-29T19:02:40.434Z,74.40
2019-03-29T19:06:45.613Z,73.10
2019-03-29T19:10:52.140Z,72.50
2019-03-29T19:14:57.236Z,72.80
2019-03-29T19:19:09.914Z,72.60
2019-03-29T19:23:09.296Z,72.50
2019-03-29T19:27:14.460Z,72.70
2019-03-29T19:31:20.296Z,72.80
2019-03-29T19:35:25.644Z,72.80
2019-03-29T19:39:30.858Z,72.60
2019-03-29T19:43:35.981Z,72.60
2019-03-29T19:47:41.097Z,73.60
2019-03-29T19:51:47.334Z,73.40
2019-03-29T19:55:52.428Z,74.30
2019-03-29T19:59:57.553Z,74.80
2019-03-29T20:04:02.645Z,74.20
2019-03-29T20:08:09.503Z,74.30
2019-03-29T20:12:15.152Z,74.30
2019-03-29T20:16:20.240Z,75.10
2019-03-29T20:20:26.296Z,75.20
2019-03-29T20:24:31.412Z,75.30
2019-03-29T20:28:36.499Z,75.30
2019-03-29T20:32:41.636Z,75.30
2019-03-29T20:36:46.721Z,75.40
2019-03-29T20:40:51.839Z,75.30
2019-03-29T20:44:56.944Z,75.40
2019-03-29T20:49:02.056Z,75.40
2019-03-29T20:53:07.180Z,75.50
2019-03-29T20:57:12.255Z,74.60
2019-03-29T21:01:17.365Z,74.70
2019-03-29T21:05:22.481Z,75.60
2019-03-29T21:09:27.641Z,75.60
2019-03-29T21:13:32.848Z,76.50
2019-03-29T21:17:38.015Z,75.80
2019-03-29T21:21:43.144Z,75.60
2019-03-29T21:25:48.252Z,75.80
2019-03-29T21:29:53.357Z,75.80
2019-03-29T21:33:58.490Z,76.00
2019-03-29T21:38:03.604Z,75.60
2019-03-29T21:42:08.737Z,75.30
2019-03-29T21:46:13.862Z,75.00
2019-03-29T21:50:19.118Z,75.00
2019-03-29T21:54:24.575Z,75.10
2019-03-29T21:58:29.660Z,75.60
2019-03-29T22:02:34.813Z,75.80
2019-03-29T22:06:39.929Z,76.10
2019-03-29T22:10:45.089Z,76.10
2019-03-29T22:14:50.224Z,76.10
2019-03-29T22:18:55.311Z,76.30
2019-03-29T22:23:00.489Z,76.30
2019-03-29T22:27:05.607Z,76.00
2019-03-29T22:31:10.755Z,75.80
2019-03-29T22:35:15.918Z,75.70
2019-03-29T22:39:21.015Z,75.80
2019-03-29T22:43:26.276Z,76.80
2019-03-29T22:47:31.403Z,76.30
2019-03-29T22:51:36.524Z,75.80
2019-03-29T22:55:41.639Z,75.20
2019-03-29T22:59:46.716Z,75.40
2019-03-29T23:03:51.876Z,75.60
2019-03-29T23:07:57.008Z,75.70
2019-03-29T23:12:02.161Z,76.00
2019-03-29T23:16:05.917Z,76.30
2019-03-29T23:20:09.735Z,75.60
2019-03-29T23:24:13.504Z,76.20
2019-03-29T23:28:17.301Z,76.30
2019-03-29T23:32:21.067Z,76.50
2019-03-29T23:36:24.823Z,76.60
2019-03-29T23:40:29.896Z,77.00
2019-03-29T23:44:35.019Z,77.00
2019-03-29T23:48:40.137Z,78.80
2019-03-29T23:52:45.276Z,78.50
2019-03-29T23:56:50.384Z,77.80
